createdAt,value
2024-03-12T00:00:01.701Z,57.77
2024-03-12T00:00:35.105Z,57.73
2024-03-12T00:01:31.045Z,57.72
2024-03-12T00:02:08.796Z,57.79
2024-03-12T00:02:45.945Z,57.87
2024-03-12T00:03:19.130Z,57.92
2024-03-12T00:03:52.262Z,57.95
2024-03-12T00:04:25.607Z,57.99
2024-03-12T00:04:59.137Z,57.95
2024-03-12T00:05:32.148Z,58.02
2024-03-12T00:06:06.840Z,58.03
2024-03-12T00:06:43.331Z,58.05
2024-03-12T00:07:18.106Z,58.01
2024-03-12T00:07:52.108Z,58.03
2024-03-12T00:08:24.989Z,58.12
2024-03-12T00:08:58.109Z,58.16
2024-03-12T00:09:31.216Z,58.17
2024-03-12T00:10:06.377Z,58.33
2024-03-12T00:10:39.689Z,58.38
2024-03-12T00:11:12.716Z,58.41
2024-03-12T00:11:46.737Z,58.46
2024-03-12T00:12:19.662Z,58.51
2024-03-12T00:12:54.151Z,58.59
2024-03-12T00:13:27.720Z,58.44
2024-03-12T00:14:01.118Z,58.46
2024-03-12T00:14:34.968Z,58.46
2024-03-12T00:15:08.486Z,58.50
2024-03-12T00:15:42.811Z,58.49
2024-03-12T00:16:15.929Z,58.51
2024-03-12T00:16:49.008Z,58.53
2024-03-12T00:17:25.432Z,58.50
2024-03-12T00:17:59.562Z,58.46
2024-03-12T00:18:34.560Z,58.49
2024-03-12T00:19:10.602Z,58.51
2024-03-12T00:19:43.638Z,58.58
2024-03-12T00:20:19.387Z,58.65
2024-03-12T00:20:55.693Z,58.68
2024-03-12T00:21:29.268Z,58.68
2024-03-12T00:22:02.270Z,58.75
2024-03-12T00:22:35.922Z,58.76
2024-03-12T00:23:09.154Z,58.83
2024-03-12T00:23:43.417Z,58.86
2024-03-12T00:24:16.593Z,58.83
2024-03-12T00:24:50.992Z,58.85
2024-03-12T00:25:24.233Z,58.86
2024-03-12T00:25:57.556Z,58.84
2024-03-12T00:26:32.383Z,58.86
2024-03-12T00:27:07.234Z,58.86
2024-03-12T00:27:41.390Z,58.91
2024-03-12T00:28:14.474Z,58.95
2024-03-12T00:28:49.949Z,58.92
2024-03-12T00:29:22.983Z,58.91
2024-03-12T00:29:56.574Z,58.89
2024-03-12T00:30:32.171Z,58.96
2024-03-12T00:31:06.413Z,58.95
2024-03-12T00:31:39.869Z,58.94
2024-03-12T00:32:13.621Z,59.01
2024-03-12T00:32:48.741Z,59.01
2024-03-12T00:33:22.102Z,58.96
2024-03-12T00:33:56.680Z,58.98
2024-03-12T00:34:31.141Z,58.97
2024-03-12T00:35:04.686Z,59.03
2024-03-12T00:35:40.119Z,59.05
2024-03-12T00:36:13.490Z,59.05
2024-03-12T00:36:47.111Z,59.10
2024-03-12T00:37:21.702Z,59.06
2024-03-12T00:37:55.686Z,59.08
2024-03-12T00:38:30.292Z,59.08
2024-03-12T00:39:03.991Z,59.13
2024-03-12T00:39:37.458Z,59.17
2024-03-12T00:40:12.687Z,59.15
2024-03-12T00:40:49.439Z,59.17
2024-03-12T00:41:22.560Z,59.22
2024-03-12T00:41:57.717Z,59.18
2024-03-12T00:42:30.669Z,59.20
2024-03-12T00:43:04.701Z,59.21
2024-03-12T00:43:37.882Z,59.19
2024-03-12T00:44:11.114Z,59.23
2024-03-12T00:44:44.680Z,59.20
2024-03-12T00:45:36.394Z,59.26
2024-03-12T00:46:11.420Z,59.23
2024-03-12T00:46:44.572Z,59.29
2024-03-12T00:47:17.778Z,59.31
2024-03-12T00:47:50.928Z,59.25
2024-03-12T00:48:25.159Z,59.34
2024-03-12T00:49:01.011Z,59.36
2024-03-12T00:49:34.095Z,59.28
2024-03-12T00:50:08.943Z,59.28
2024-03-12T00:50:43.632Z,59.31
2024-03-12T00:51:16.829Z,59.27
2024-03-12T00:51:50.054Z,59.33
2024-03-12T00:52:23.797Z,59.32
2024-03-12T00:52:56.842Z,59.32
2024-03-12T00:53:31.043Z,59.24
2024-03-12T00:54:05.280Z,59.28
2024-03-12T00:54:38.623Z,59.32
2024-03-12T00:55:19.873Z,59.31
2024-03-12T00:55:54.445Z,59.37
2024-03-12T00:56:28.785Z,59.38
2024-03-12T00:57:01.817Z,59.39
2024-03-12T00:57:50.982Z,59.42
2024-03-12T00:58:24.851Z,59.37
2024-03-12T00:58:57.794Z,59.42
2024-03-12T00:59:30.843Z,59.44
2024-03-12T01:00:04.728Z,59.41
2024-03-12T01:00:38.345Z,59.50
2024-03-12T01:01:15.939Z,59.51
2024-03-12T01:01:58.415Z,59.52
2024-03-12T01:02:34.508Z,59.53
2024-03-12T01:03:09.836Z,59.54
2024-03-12T01:03:47.970Z,59.61
2024-03-12T01:04:24.792Z,59.66
2024-03-12T01:05:01.060Z,59.58
2024-03-12T01:05:37.427Z,59.48
2024-03-12T01:06:12.898Z,59.54
2024-03-12T01:06:50.654Z,59.59
2024-03-12T01:07:23.769Z,59.57
2024-03-12T01:07:59.873Z,59.63
2024-03-12T01:08:33.004Z,59.60
2024-03-12T01:09:07.507Z,59.60
2024-03-12T01:09:40.808Z,59.63
2024-03-12T01:10:13.906Z,59.66
2024-03-12T01:10:49.022Z,59.69
2024-03-12T01:11:24.073Z,59.70
2024-03-12T01:11:57.215Z,59.77
2024-03-12T01:12:30.584Z,59.76
2024-03-12T01:13:07.688Z,59.78
2024-03-12T01:13:41.507Z,59.79
2024-03-12T01:14:16.149Z,59.83
2024-03-12T01:14:49.262Z,59.86
2024-03-12T01:15:24.997Z,59.85
2024-03-12T01:15:59.173Z,59.92
2024-03-12T01:16:34.823Z,59.92
2024-03-12T01:17:08.079Z,59.82
2024-03-12T01:17:49.977Z,59.85
2024-03-12T01:18:23.069Z,59.87
2024-03-12T01:18:57.765Z,59.88
2024-03-12T01:19:32.863Z,59.85
2024-03-12T01:20:10.666Z,59.97
2024-03-12T01:20:45.195Z,59.94
2024-03-12T01:21:18.256Z,60.01
2024-03-12T01:21:54.586Z,59.99
2024-03-12T01:22:28.229Z,60.03
2024-03-12T01:23:01.377Z,59.98
2024-03-12T01:23:34.360Z,59.82
2024-03-12T01:24:08.567Z,59.71
2024-03-12T01:24:44.701Z,59.77
2024-03-12T01:25:17.953Z,59.77
2024-03-12T01:25:51.010Z,59.86
2024-03-12T01:26:27.036Z,59.90
2024-03-12T01:27:00.222Z,59.86
2024-03-12T01:27:34.813Z,59.87
2024-03-12T01:28:11.509Z,59.95
2024-03-12T01:28:44.884Z,59.91
2024-03-12T01:29:19.074Z,59.93
2024-03-12T01:29:52.179Z,59.94
2024-03-12T01:30:28.882Z,59.92
2024-03-12T01:31:02.332Z,59.96
2024-03-12T01:31:35.369Z,59.91
2024-03-12T01:32:10.524Z,59.91
2024-03-12T01:32:46.951Z,59.92
2024-03-12T01:33:20.764Z,59.86
2024-03-12T01:33:53.860Z,59.89
2024-03-12T01:34:30.013Z,59.93
2024-03-12T01:35:05.071Z,59.92
2024-03-12T01:35:41.922Z,59.97
2024-03-12T01:36:22.113Z,60.05
2024-03-12T01:36:55.535Z,60.10
2024-03-12T01:37:31.056Z,60.13
2024-03-12T01:38:04.369Z,60.22
2024-03-12T01:38:37.426Z,60.27
2024-03-12T01:39:26.426Z,60.22
2024-03-12T01:39:59.629Z,60.15
2024-03-12T01:40:32.677Z,60.13
2024-03-12T01:41:06.624Z,60.17
2024-03-12T01:41:43.075Z,60.18
2024-03-12T01:42:16.821Z,60.31
2024-03-12T01:42:55.022Z,60.31
2024-03-12T01:43:29.302Z,60.28
2024-03-12T01:44:07.550Z,60.30
2024-03-12T01:44:40.876Z,60.32
2024-03-12T01:45:17.094Z,60.42
2024-03-12T01:45:50.095Z,60.44
2024-03-12T01:46:23.265Z,60.51
2024-03-12T01:46:56.310Z,60.55
2024-03-12T01:47:30.384Z,60.65
2024-03-12T01:48:12.265Z,60.66
2024-03-12T01:48:45.908Z,60.60
2024-03-12T01:49:19.075Z,60.64
2024-03-12T01:49:52.045Z,60.77
2024-03-12T01:50:28.519Z,60.63
2024-03-12T01:51:01.490Z,60.67
2024-03-12T01:51:34.499Z,60.71
2024-03-12T01:52:09.093Z,60.68
2024-03-12T01:52:52.120Z,60.75
2024-03-12T01:53:35.144Z,60.73
2024-03-12T01:54:10.016Z,60.66
2024-03-12T01:54:45.114Z,60.69
2024-03-12T01:55:19.994Z,60.74
2024-03-12T01:55:53.297Z,60.74
2024-03-12T01:56:26.323Z,60.76
2024-03-12T01:56:59.387Z,60.84
2024-03-12T01:57:32.390Z,60.84
2024-03-12T01:58:05.580Z,60.86
2024-03-12T01:58:38.489Z,60.89
2024-03-12T01:59:13.934Z,60.88
2024-03-12T01:59:46.776Z,60.86
2024-03-12T02:00:19.915Z,60.80
2024-03-12T02:00:53.169Z,60.86
2024-03-12T02:01:26.781Z,60.90
2024-03-12T02:02:03.182Z,60.89
2024-03-12T02:02:36.402Z,60.94
2024-03-12T02:03:10.340Z,60.90
2024-03-12T02:03:44.362Z,60.92
2024-03-12T02:04:17.589Z,61.02
2024-03-12T02:04:51.624Z,61.02
2024-03-12T02:05:24.673Z,60.99
2024-03-12T02:05:58.369Z,61.00
2024-03-12T02:06:31.350Z,61.03
2024-03-12T02:07:05.322Z,61.00
2024-03-12T02:07:39.990Z,60.97
2024-03-12T02:08:13.245Z,61.03
2024-03-12T02:08:47.573Z,61.11
2024-03-12T02:09:22.373Z,61.08
2024-03-12T02:09:55.521Z,61.09
2024-03-12T02:10:28.496Z,61.14
2024-03-12T02:11:01.881Z,61.21
2024-03-12T02:11:35.148Z,61.27
2024-03-12T02:12:08.923Z,61.29
2024-03-12T02:12:42.801Z,61.35
2024-03-12T02:13:16.308Z,61.34
2024-03-12T02:13:52.380Z,61.27
2024-03-12T02:14:25.446Z,61.27
2024-03-12T02:15:04.156Z,61.30
2024-03-12T02:15:37.181Z,61.30
2024-03-12T02:16:11.146Z,61.30
2024-03-12T02:16:45.036Z,61.37
2024-03-12T02:17:18.289Z,61.54
2024-03-12T02:17:54.451Z,61.54
2024-03-12T02:18:27.573Z,61.56
2024-03-12T02:19:00.698Z,61.57
2024-03-12T02:19:35.225Z,61.56
2024-03-12T02:20:11.605Z,61.59
2024-03-12T02:20:44.535Z,61.62
2024-03-12T02:21:17.775Z,61.59
2024-03-12T02:21:50.846Z,61.66
2024-03-12T02:22:27.835Z,61.73
2024-03-12T02:23:00.906Z,61.71
2024-03-12T02:23:41.246Z,61.75
2024-03-12T02:24:14.311Z,61.72
2024-03-12T02:24:48.283Z,61.78
2024-03-12T02:25:21.322Z,61.74
2024-03-12T02:25:54.317Z,61.74
2024-03-12T02:26:27.188Z,61.72
2024-03-12T02:27:01.056Z,61.72
2024-03-12T02:27:34.032Z,61.75
2024-03-12T02:28:07.549Z,61.67
2024-03-12T02:28:40.630Z,61.72
2024-03-12T02:29:14.308Z,61.76
2024-03-12T02:29:48.545Z,61.78
2024-03-12T02:30:22.160Z,61.90
2024-03-12T02:30:55.298Z,61.85
2024-03-12T02:31:28.457Z,61.86
2024-03-12T02:32:01.414Z,61.90
2024-03-12T02:32:34.382Z,62.00
2024-03-12T02:33:07.305Z,61.98
2024-03-12T02:33:41.965Z,62.02
2024-03-12T02:34:15.046Z,61.93
2024-03-12T02:34:50.496Z,61.98
2024-03-12T02:35:23.350Z,62.05
2024-03-12T02:35:56.653Z,62.09
2024-03-12T02:36:29.564Z,62.12
2024-03-12T02:37:03.372Z,62.19
2024-03-12T02:37:36.710Z,62.23
2024-03-12T02:38:10.001Z,62.25
2024-03-12T02:38:43.027Z,62.19
2024-03-12T02:39:16.303Z,62.16
2024-03-12T02:39:49.309Z,62.17
2024-03-12T02:40:22.510Z,62.28
2024-03-12T02:40:55.431Z,62.24
2024-03-12T02:41:29.104Z,62.27
2024-03-12T02:42:02.169Z,62.30
2024-03-12T02:42:35.141Z,62.35
2024-03-12T02:43:08.161Z,62.32
2024-03-12T02:43:42.484Z,62.39
2024-03-12T02:44:15.500Z,62.46
2024-03-12T02:44:48.589Z,62.38
2024-03-12T02:45:22.704Z,62.36
2024-03-12T02:45:56.405Z,62.35
2024-03-12T02:46:29.385Z,62.41
2024-03-12T02:47:04.236Z,62.42
2024-03-12T02:47:37.334Z,62.47
2024-03-12T02:48:10.856Z,62.44
2024-03-12T02:48:43.932Z,62.43
2024-03-12T02:49:18.239Z,62.47
2024-03-12T02:49:51.252Z,62.45
2024-03-12T02:50:25.688Z,62.42
2024-03-12T02:51:10.316Z,62.50
2024-03-12T02:51:51.246Z,62.54
2024-03-12T02:52:24.126Z,62.55
2024-03-12T02:52:57.359Z,62.46
2024-03-12T02:53:30.700Z,62.57
2024-03-12T02:54:06.151Z,62.67
2024-03-12T02:54:47.070Z,62.62
2024-03-12T02:55:20.418Z,62.64
2024-03-12T02:55:53.568Z,62.57
2024-03-12T02:56:26.868Z,62.65
2024-03-12T02:56:59.907Z,62.68
2024-03-12T02:57:33.224Z,62.69
2024-03-12T02:58:06.378Z,62.67
2024-03-12T02:58:39.562Z,62.65
2024-03-12T02:59:13.396Z,62.64
2024-03-12T02:59:46.421Z,62.65
2024-03-12T03:00:19.570Z,62.77
2024-03-12T03:00:54.848Z,62.73
2024-03-12T03:01:28.746Z,62.79
2024-03-12T03:02:02.041Z,62.75
2024-03-12T03:02:35.024Z,62.82
2024-03-12T03:03:08.296Z,62.80
2024-03-12T03:04:01.707Z,62.79
2024-03-12T03:04:38.074Z,62.81
2024-03-12T03:05:11.534Z,62.78
2024-03-12T03:05:47.948Z,62.83
2024-03-12T03:06:21.329Z,62.78
2024-03-12T03:06:58.975Z,62.81
2024-03-12T03:07:32.065Z,62.81
2024-03-12T03:08:05.065Z,62.81
2024-03-12T03:08:38.772Z,62.81
2024-03-12T03:09:11.928Z,62.74
2024-03-12T03:09:45.604Z,62.89
2024-03-12T03:10:19.044Z,62.88
2024-03-12T03:10:52.036Z,62.91
2024-03-12T03:11:25.393Z,62.94
2024-03-12T03:11:59.717Z,62.91
2024-03-12T03:12:32.872Z,62.98
2024-03-12T03:13:06.012Z,63.03
2024-03-12T03:13:39.477Z,62.99
2024-03-12T03:14:12.411Z,63.05
2024-03-12T03:14:45.420Z,63.10
2024-03-12T03:15:19.464Z,63.12
2024-03-12T03:15:53.184Z,63.19
2024-03-12T03:16:26.416Z,63.17
2024-03-12T03:16:59.528Z,63.16
2024-03-12T03:17:32.561Z,63.22
2024-03-12T03:18:05.944Z,63.22
2024-03-12T03:18:39.085Z,63.23
2024-03-12T03:19:12.241Z,63.19
2024-03-12T03:19:45.133Z,63.21
2024-03-12T03:20:18.214Z,63.26
2024-03-12T03:20:51.245Z,63.28
2024-03-12T03:21:25.385Z,63.33
2024-03-12T03:21:58.571Z,63.31
2024-03-12T03:22:31.716Z,63.34
2024-03-12T03:23:05.929Z,63.33
2024-03-12T03:23:42.551Z,63.24
2024-03-12T03:24:15.625Z,63.44
2024-03-12T03:24:48.734Z,63.54
2024-03-12T03:25:22.279Z,63.53
2024-03-12T03:25:55.450Z,63.41
2024-03-12T03:26:28.705Z,63.46
2024-03-12T03:27:01.727Z,63.47
2024-03-12T03:27:34.903Z,63.50
2024-03-12T03:28:08.087Z,63.49
2024-03-12T03:28:41.093Z,63.51
2024-03-12T03:29:14.450Z,63.56
2024-03-12T03:29:47.601Z,63.54
2024-03-12T03:30:20.736Z,63.56
2024-03-12T03:30:54.805Z,63.60
2024-03-12T03:31:28.028Z,63.62
2024-03-12T03:32:01.226Z,63.64
2024-03-12T03:32:36.687Z,63.64
2024-03-12T03:33:10.114Z,63.63
2024-03-12T03:33:48.712Z,63.65
2024-03-12T03:34:21.886Z,63.65
2024-03-12T03:34:55.097Z,63.66
2024-03-12T03:35:30.404Z,63.68
2024-03-12T03:36:06.830Z,63.76
2024-03-12T03:36:41.051Z,63.78
2024-03-12T03:37:15.223Z,63.80
2024-03-12T03:37:48.747Z,63.79
2024-03-12T03:38:22.449Z,63.78
2024-03-12T03:39:16.650Z,63.75
2024-03-12T03:39:49.951Z,63.75
2024-03-12T03:40:27.292Z,63.77
2024-03-12T03:41:00.689Z,63.89
2024-03-12T03:41:33.897Z,63.88
2024-03-12T03:42:08.072Z,63.86
2024-03-12T03:42:54.045Z,63.80
2024-03-12T03:43:27.418Z,63.87
2024-03-12T03:44:01.018Z,63.82
2024-03-12T03:44:34.297Z,63.84
2024-03-12T03:45:07.451Z,63.82
2024-03-12T03:45:40.872Z,63.85
2024-03-12T03:46:13.942Z,63.84
2024-03-12T03:46:47.278Z,63.84
2024-03-12T03:47:35.150Z,63.83
2024-03-12T03:48:08.673Z,63.83
2024-03-12T03:48:42.139Z,63.89
2024-03-12T03:49:15.473Z,63.96
2024-03-12T03:49:49.045Z,63.89
2024-03-12T03:50:22.190Z,63.92
2024-03-12T03:50:55.337Z,63.91
2024-03-12T03:51:28.333Z,63.94
2024-03-12T03:52:02.532Z,64.02
2024-03-12T03:52:35.766Z,64.03
2024-03-12T03:53:09.423Z,64.10
2024-03-12T03:53:45.295Z,64.11
2024-03-12T03:54:18.300Z,64.17
2024-03-12T03:54:52.471Z,64.20
2024-03-12T03:55:28.686Z,64.15
2024-03-12T03:56:01.791Z,64.16
2024-03-12T03:56:34.816Z,64.18
2024-03-12T03:57:10.103Z,64.19
2024-03-12T03:57:43.270Z,64.19
2024-03-12T03:58:16.452Z,64.17
2024-03-12T03:58:50.012Z,64.20
2024-03-12T03:59:23.108Z,64.22
2024-03-12T03:59:57.950Z,64.22
2024-03-12T04:00:33.649Z,64.27
2024-03-12T04:01:07.039Z,64.27
2024-03-12T04:01:40.736Z,64.30
2024-03-12T04:02:17.892Z,64.32
2024-03-12T04:02:51.207Z,64.32
2024-03-12T04:03:26.580Z,64.34
2024-03-12T04:04:09.297Z,64.35
2024-03-12T04:04:44.144Z,64.28
2024-03-12T04:05:17.732Z,64.29
2024-03-12T04:05:51.448Z,64.31
2024-03-12T04:06:24.848Z,64.31
2024-03-12T04:06:58.029Z,64.37
2024-03-12T04:07:31.330Z,64.37
2024-03-12T04:08:04.828Z,64.35
2024-03-12T04:08:37.968Z,64.35
2024-03-12T04:09:11.122Z,64.37
2024-03-12T04:09:44.504Z,64.32
2024-03-12T04:10:17.763Z,64.34
2024-03-12T04:10:50.746Z,64.39
2024-03-12T04:11:26.858Z,64.39
2024-03-12T04:12:02.405Z,64.33
2024-03-12T04:12:35.527Z,64.37
2024-03-12T04:13:10.646Z,64.37
2024-03-12T04:13:44.042Z,64.31
2024-03-12T04:14:19.281Z,64.37
2024-03-12T04:14:52.680Z,64.38
2024-03-12T04:15:30.190Z,64.37
2024-03-12T04:16:04.635Z,64.40
2024-03-12T04:16:37.910Z,64.46
2024-03-12T04:17:11.355Z,64.37
2024-03-12T04:17:45.620Z,64.37
2024-03-12T04:18:20.173Z,64.39
2024-03-12T04:18:53.884Z,64.36
2024-03-12T04:19:30.748Z,64.38
2024-03-12T04:20:10.414Z,64.34
2024-03-12T04:20:43.325Z,64.37
2024-03-12T04:21:17.385Z,64.37
2024-03-12T04:21:50.445Z,64.42
2024-03-12T04:22:23.386Z,64.43
2024-03-12T04:22:56.955Z,64.39
2024-03-12T04:23:29.950Z,64.35
2024-03-12T04:24:03.171Z,64.34
2024-03-12T04:24:38.241Z,64.36
2024-03-12T04:25:13.535Z,64.40
2024-03-12T04:25:46.568Z,64.46
2024-03-12T04:26:21.088Z,64.43
2024-03-12T04:26:54.102Z,64.29
2024-03-12T04:27:28.574Z,64.29
2024-03-12T04:28:01.622Z,64.36
2024-03-12T04:28:34.673Z,64.40
2024-03-12T04:29:07.556Z,64.37
2024-03-12T04:29:41.305Z,64.36
2024-03-12T04:30:15.169Z,64.38
2024-03-12T04:30:50.248Z,64.34
2024-03-12T04:31:23.365Z,64.38
2024-03-12T04:31:56.328Z,64.40
2024-03-12T04:32:29.349Z,64.37
2024-03-12T04:33:03.007Z,64.40
2024-03-12T04:33:37.430Z,64.38
2024-03-12T04:34:10.827Z,64.34
2024-03-12T04:34:45.571Z,64.33
2024-03-12T04:35:18.836Z,64.31
2024-03-12T04:35:53.327Z,64.33
2024-03-12T04:36:26.296Z,64.28
2024-03-12T04:36:59.868Z,64.26
2024-03-12T04:37:33.354Z,64.23
2024-03-12T04:38:09.189Z,64.26
2024-03-12T04:38:42.337Z,64.19
2024-03-12T04:39:33.792Z,64.22
2024-03-12T04:40:10.656Z,64.24
2024-03-12T04:40:43.964Z,64.22
2024-03-12T04:41:21.873Z,64.31
2024-03-12T04:41:55.168Z,64.30
2024-03-12T04:42:28.449Z,64.31
2024-03-12T04:43:03.627Z,64.31
2024-03-12T04:43:37.554Z,64.32
2024-03-12T04:44:10.687Z,64.34
2024-03-12T04:44:43.858Z,64.33
2024-03-12T04:45:17.096Z,64.33
2024-03-12T04:45:50.081Z,64.30
2024-03-12T04:46:23.121Z,64.33
2024-03-12T04:46:56.295Z,64.28
2024-03-12T04:47:29.267Z,64.32
2024-03-12T04:48:02.328Z,64.36
2024-03-12T04:48:35.603Z,64.34
2024-03-12T04:49:08.893Z,64.34
2024-03-12T04:49:42.180Z,64.37
2024-03-12T04:50:16.409Z,64.35
2024-03-12T04:50:49.453Z,64.37
2024-03-12T04:51:22.466Z,64.34
2024-03-12T04:51:56.372Z,64.37
2024-03-12T04:52:29.532Z,64.32
2024-03-12T04:53:02.510Z,64.44
2024-03-12T04:53:35.844Z,64.39
2024-03-12T04:54:09.382Z,64.28
2024-03-12T04:54:42.975Z,64.33
2024-03-12T04:55:16.109Z,64.24
2024-03-12T04:55:49.122Z,64.28
2024-03-12T04:56:22.473Z,64.30
2024-03-12T04:56:58.173Z,64.32
2024-03-12T04:57:31.145Z,64.31
2024-03-12T04:58:07.521Z,64.30
2024-03-12T04:58:40.769Z,64.41
2024-03-12T04:59:16.910Z,64.32
2024-03-12T04:59:50.011Z,64.25
2024-03-12T05:00:23.231Z,64.25
2024-03-12T05:00:56.597Z,64.23
2024-03-12T05:01:29.850Z,64.31
2024-03-12T05:02:03.002Z,64.37
2024-03-12T05:02:36.114Z,64.35
2024-03-12T05:03:09.106Z,64.27
2024-03-12T05:03:42.218Z,64.30
2024-03-12T05:04:22.729Z,64.33
2024-03-12T05:04:56.714Z,64.29
2024-03-12T05:05:29.675Z,64.30
2024-03-12T05:06:02.658Z,64.26
2024-03-12T05:06:35.859Z,64.26
2024-03-12T05:07:09.279Z,64.25
2024-03-12T05:07:42.380Z,64.24
2024-03-12T05:08:15.390Z,64.27
2024-03-12T05:08:48.671Z,64.31
2024-03-12T05:09:21.626Z,64.28
2024-03-12T05:09:54.642Z,64.30
2024-03-12T05:10:28.245Z,64.36
2024-03-12T05:11:02.689Z,64.39
2024-03-12T05:11:39.329Z,64.45
2024-03-12T05:12:12.437Z,64.45
2024-03-12T05:12:48.610Z,64.50
2024-03-12T05:13:32.797Z,64.58
2024-03-12T05:14:07.230Z,64.61
2024-03-12T05:14:40.526Z,64.60
2024-03-12T05:15:13.826Z,64.65
2024-03-12T05:15:46.865Z,64.52
2024-03-12T05:16:22.036Z,64.61
2024-03-12T05:16:58.107Z,64.50
2024-03-12T05:17:31.408Z,64.57
2024-03-12T05:18:04.989Z,64.51
2024-03-12T05:18:38.053Z,64.55
2024-03-12T05:19:12.869Z,64.54
2024-03-12T05:19:46.155Z,64.53
2024-03-12T05:20:20.055Z,64.52
2024-03-12T05:20:53.416Z,64.64
2024-03-12T05:21:30.708Z,64.60
2024-03-12T05:22:05.104Z,64.60
2024-03-12T05:22:38.356Z,64.63
2024-03-12T05:23:11.860Z,64.60
2024-03-12T05:23:45.361Z,64.59
2024-03-12T05:24:19.244Z,64.60
2024-03-12T05:24:52.461Z,64.61
2024-03-12T05:25:40.146Z,64.61
2024-03-12T05:26:16.636Z,64.62
2024-03-12T05:26:51.256Z,64.72
2024-03-12T05:27:34.941Z,64.67
2024-03-12T05:28:11.721Z,64.73
2024-03-12T05:28:45.415Z,64.68
2024-03-12T05:29:18.944Z,64.69
2024-03-12T05:29:55.344Z,64.71
2024-03-12T05:30:30.211Z,64.75
2024-03-12T05:31:03.542Z,64.75
2024-03-12T05:31:39.549Z,64.80
2024-03-12T05:32:22.591Z,64.79
2024-03-12T05:32:57.345Z,64.77
2024-03-12T05:33:31.408Z,64.90
2024-03-12T05:34:04.572Z,64.79
2024-03-12T05:34:40.726Z,64.76
2024-03-12T05:35:22.942Z,64.68
2024-03-12T05:35:56.269Z,64.61
2024-03-12T05:36:42.086Z,64.73
2024-03-12T05:37:30.457Z,64.83
2024-03-12T05:38:13.008Z,64.88
2024-03-12T05:38:56.166Z,65.03
2024-03-12T05:39:48.736Z,65.09
2024-03-12T05:40:30.936Z,64.95
2024-03-12T05:41:09.887Z,64.85
2024-03-12T05:41:50.569Z,64.94
2024-03-12T05:42:41.741Z,64.77
2024-03-12T05:43:33.221Z,64.85
2024-03-12T05:44:24.658Z,64.83
2024-03-12T05:45:16.377Z,64.85
2024-03-12T05:46:07.975Z,64.88
2024-03-12T05:46:59.669Z,64.85
2024-03-12T05:47:51.454Z,64.92
2024-03-12T05:48:24.523Z,65.01
2024-03-12T05:48:57.912Z,64.95
2024-03-12T05:49:32.150Z,64.95
2024-03-12T05:50:06.720Z,64.93
2024-03-12T05:50:40.370Z,64.90
2024-03-12T05:51:13.486Z,64.96
2024-03-12T05:51:46.749Z,64.97
2024-03-12T05:52:20.420Z,64.94
2024-03-12T05:52:55.193Z,64.93
2024-03-12T05:53:28.493Z,65.01
2024-03-12T05:54:03.549Z,65.04
2024-03-12T05:54:36.688Z,65.03
2024-03-12T05:55:10.053Z,65.11
2024-03-12T05:55:45.865Z,65.15
2024-03-12T05:56:19.656Z,65.16
2024-03-12T05:56:53.868Z,65.10
2024-03-12T05:57:27.098Z,65.15
2024-03-12T05:58:01.173Z,65.18
2024-03-12T05:58:34.353Z,65.16
2024-03-12T05:59:08.589Z,65.18
2024-03-12T05:59:42.930Z,65.17
2024-03-12T06:00:16.098Z,65.16
2024-03-12T06:00:49.990Z,65.17
2024-03-12T06:01:25.456Z,65.16
2024-03-12T06:01:59.349Z,65.14
2024-03-12T06:02:34.651Z,65.15
2024-03-12T06:03:08.129Z,65.16
2024-03-12T06:03:41.415Z,65.17
2024-03-12T06:04:16.299Z,65.15
2024-03-12T06:04:49.353Z,65.16
2024-03-12T06:05:22.349Z,65.13
2024-03-12T06:05:55.362Z,65.11
2024-03-12T06:06:28.571Z,65.17
2024-03-12T06:07:02.989Z,65.16
2024-03-12T06:07:36.382Z,65.19
2024-03-12T06:08:09.320Z,65.16
2024-03-12T06:08:42.373Z,65.12
2024-03-12T06:09:16.236Z,65.14
2024-03-12T06:09:49.237Z,65.15
2024-03-12T06:10:25.435Z,65.19
2024-03-12T06:11:06.067Z,65.14
2024-03-12T06:11:40.953Z,65.14
2024-03-12T06:12:14.234Z,65.13
2024-03-12T06:12:47.680Z,65.20
2024-03-12T06:13:24.145Z,65.14
2024-03-12T06:14:01.346Z,65.18
2024-03-12T06:14:37.360Z,65.18
2024-03-12T06:15:10.443Z,65.18
2024-03-12T06:15:45.553Z,65.16
2024-03-12T06:16:19.715Z,65.14
2024-03-12T06:16:53.109Z,65.17
2024-03-12T06:17:26.596Z,65.20
2024-03-12T06:17:59.631Z,65.17
2024-03-12T06:18:32.745Z,65.15
2024-03-12T06:19:05.776Z,65.18
2024-03-12T06:19:41.145Z,65.22
2024-03-12T06:20:14.241Z,65.34
2024-03-12T06:20:47.439Z,65.39
2024-03-12T06:21:20.370Z,65.42
2024-03-12T06:21:53.378Z,65.36
2024-03-12T06:22:26.482Z,65.41
2024-03-12T06:22:59.404Z,65.36
2024-03-12T06:23:32.474Z,65.37
2024-03-12T06:24:07.019Z,65.35
2024-03-12T06:24:40.907Z,65.33
2024-03-12T06:25:14.713Z,65.41
2024-03-12T06:25:48.403Z,65.53
2024-03-12T06:26:22.467Z,65.49
2024-03-12T06:26:56.422Z,65.47
2024-03-12T06:27:30.376Z,65.42
2024-03-12T06:28:06.814Z,65.45
2024-03-12T06:28:40.220Z,65.48
2024-03-12T06:29:15.191Z,65.41
2024-03-12T06:29:52.108Z,65.48
2024-03-12T06:30:25.015Z,65.54
2024-03-12T06:30:58.468Z,65.60
2024-03-12T06:31:32.526Z,65.63
2024-03-12T06:32:05.441Z,65.56
2024-03-12T06:32:38.493Z,65.57
2024-03-12T06:33:13.448Z,65.52
2024-03-12T06:33:46.662Z,65.57
2024-03-12T06:34:19.789Z,65.61
2024-03-12T06:34:52.859Z,65.58
2024-03-12T06:35:25.831Z,65.48
2024-03-12T06:35:58.887Z,65.48
2024-03-12T06:36:33.619Z,65.53
2024-03-12T06:37:06.883Z,65.57
2024-03-12T06:37:40.148Z,65.51
2024-03-12T06:38:13.091Z,65.54
2024-03-12T06:38:48.362Z,65.51
2024-03-12T06:39:21.709Z,65.50
2024-03-12T06:39:55.579Z,65.60
2024-03-12T06:40:28.842Z,65.60
2024-03-12T06:41:05.034Z,65.56
2024-03-12T06:41:38.152Z,65.54
2024-03-12T06:42:13.820Z,65.54
2024-03-12T06:42:46.975Z,65.44
2024-03-12T06:43:21.327Z,65.43
2024-03-12T06:43:54.569Z,65.46
2024-03-12T06:44:27.609Z,65.51
2024-03-12T06:45:02.394Z,65.53
2024-03-12T06:45:35.984Z,65.59
2024-03-12T06:46:10.766Z,65.59
2024-03-12T06:46:47.034Z,65.61
2024-03-12T06:47:23.558Z,65.57
2024-03-12T06:48:01.663Z,65.58
2024-03-12T06:48:34.819Z,65.65
2024-03-12T06:49:10.568Z,65.59
2024-03-12T06:49:45.826Z,65.51
2024-03-12T06:50:19.661Z,65.54
2024-03-12T06:50:52.916Z,65.56
2024-03-12T06:51:33.102Z,65.57
2024-03-12T06:52:07.992Z,65.54
2024-03-12T06:52:42.908Z,65.58
2024-03-12T06:53:16.218Z,65.54
2024-03-12T06:53:49.130Z,65.56
2024-03-12T06:54:27.814Z,65.45
2024-03-12T06:55:02.932Z,65.57
2024-03-12T06:55:36.968Z,65.69
2024-03-12T06:56:12.622Z,65.51
2024-03-12T06:56:47.750Z,65.43
2024-03-12T06:57:23.456Z,65.40
2024-03-12T06:58:01.581Z,65.41
2024-03-12T06:58:35.550Z,65.44
2024-03-12T06:59:10.226Z,65.47
2024-03-12T06:59:48.475Z,65.43
2024-03-12T07:00:33.548Z,65.49
2024-03-12T07:01:06.569Z,65.44
2024-03-12T07:01:42.330Z,65.57
2024-03-12T07:02:20.144Z,65.49
2024-03-12T07:03:25.768Z,65.46
2024-03-12T07:03:58.856Z,65.49
2024-03-12T07:04:44.679Z,65.50
2024-03-12T07:05:17.978Z,65.48
2024-03-12T07:05:52.134Z,65.49
2024-03-12T07:06:25.461Z,65.45
2024-03-12T07:06:58.379Z,65.42
2024-03-12T07:07:33.958Z,65.39
2024-03-12T07:08:07.345Z,65.41
2024-03-12T07:08:41.069Z,65.32
2024-03-12T07:09:24.242Z,65.27
2024-03-12T07:10:01.013Z,65.29
2024-03-12T07:10:36.877Z,65.23
2024-03-12T07:11:11.785Z,65.24
2024-03-12T07:11:46.238Z,65.30
2024-03-12T07:12:19.898Z,65.29
2024-03-12T07:12:53.593Z,65.27
2024-03-12T07:13:27.728Z,65.24
2024-03-12T07:14:03.698Z,65.32
2024-03-12T07:14:44.737Z,65.31
2024-03-12T07:15:19.433Z,65.30
2024-03-12T07:15:52.555Z,65.34
2024-03-12T07:16:26.814Z,65.25
2024-03-12T07:17:00.828Z,65.39
2024-03-12T07:17:34.513Z,65.35
2024-03-12T07:18:09.088Z,65.35
2024-03-12T07:18:42.472Z,65.38
2024-03-12T07:19:16.630Z,65.42
2024-03-12T07:19:50.748Z,65.44
2024-03-12T07:20:24.171Z,65.46
2024-03-12T07:20:57.498Z,65.48
2024-03-12T07:21:30.668Z,65.47
2024-03-12T07:22:03.913Z,65.51
2024-03-12T07:22:37.876Z,65.53
2024-03-12T07:23:10.873Z,65.49
2024-03-12T07:23:43.840Z,65.52
2024-03-12T07:24:17.084Z,65.44
2024-03-12T07:24:50.158Z,65.52
2024-03-12T07:25:23.166Z,65.48
2024-03-12T07:25:56.975Z,65.57
2024-03-12T07:26:29.961Z,65.57
2024-03-12T07:27:06.680Z,65.55
2024-03-12T07:27:42.774Z,65.55